sensor_id;sensor_type;location;lat;lon;timestamp;P1;durP1;ratioP1;P2;durP2;ratioP2
52978;SDS011;63430;53.186;6.598;2024-03-25T00:02:00;15.98;;;2.58;;
52978;SDS011;63430;53.186;6.598;2024-03-25T00:07:02;18.08;;;3.13;;
52978;SDS011;63430;53.186;6.598;2024-03-25T00:12:06;14.48;;;3.88;;
52978;SDS011;63430;53.186;6.598;2024-03-25T00:17:09;12.80;;;2.90;;
52978;SDS011;63430;53.186;6.598;2024-03-25T00:22:11;11.93;;;3.08;;
52978;SDS011;63430;53.186;6.598;2024-03-25T00:27:16;10.82;;;2.40;;
52978;SDS011;63430;53.186;6.598;2024-03-25T00:32:17;8.90;;;2.55;;
52978;SDS011;63430;53.186;6.598;2024-03-25T00:37:19;13.13;;;2.58;;
52978;SDS011;63430;53.186;6.598;2024-03-25T00:42:23;13.73;;;3.67;;
52978;SDS011;63430;53.186;6.598;2024-03-25T00:47:24;13.35;;;2.90;;
52978;SDS011;63430;53.186;6.598;2024-03-25T00:52:26;15.18;;;2.90;;
52978;SDS011;63430;53.186;6.598;2024-03-25T00:57:31;10.73;;;2.80;;
52978;SDS011;63430;53.186;6.598;2024-03-25T01:02:33;12.93;;;2.40;;
52978;SDS011;63430;53.186;6.598;2024-03-25T01:07:34;15.32;;;2.83;;
52978;SDS011;63430;53.186;6.598;2024-03-25T01:12:39;17.77;;;3.72;;
52978;SDS011;63430;53.186;6.598;2024-03-25T01:17:41;17.85;;;3.10;;
52978;SDS011;63430;53.186;6.598;2024-03-25T01:22:42;18.13;;;3.00;;
52978;SDS011;63430;53.186;6.598;2024-03-25T01:33:39;16.95;;;3.00;;
52978;SDS011;63430;53.186;6.598;2024-03-25T01:38:41;26.60;;;3.45;;
52978;SDS011;63430;53.186;6.598;2024-03-25T01:43:42;18.33;;;3.10;;
52978;SDS011;63430;53.186;6.598;2024-03-25T01:48:46;14.30;;;3.13;;
52978;SDS011;63430;53.186;6.598;2024-03-25T01:53:50;15.20;;;3.15;;
52978;SDS011;63430;53.186;6.598;2024-03-25T01:58:53;10.63;;;2.47;;
52978;SDS011;63430;53.186;6.598;2024-03-25T02:03:58;13.18;;;2.83;;
52978;SDS011;63430;53.186;6.598;2024-03-25T02:08:59;15.23;;;2.55;;
52978;SDS011;63430;53.186;6.598;2024-03-25T02:14:02;17.58;;;2.80;;
52978;SDS011;63430;53.186;6.598;2024-03-25T02:19:07;13.32;;;2.47;;
52978;SDS011;63430;53.186;6.598;2024-03-25T02:24:10;13.10;;;2.47;;
52978;SDS011;63430;53.186;6.598;2024-03-25T02:29:15;13.80;;;3.00;;
52978;SDS011;63430;53.186;6.598;2024-03-25T02:34:17;21.95;;;2.83;;
52978;SDS011;63430;53.186;6.598;2024-03-25T02:39:18;14.60;;;2.17;;
52978;SDS011;63430;53.186;6.598;2024-03-25T02:44:23;12.48;;;2.13;;
52978;SDS011;63430;53.186;6.598;2024-03-25T02:49:24;14.52;;;2.83;;
52978;SDS011;63430;53.186;6.598;2024-03-25T02:54:26;8.38;;;2.10;;
52978;SDS011;63430;53.186;6.598;2024-03-25T02:59:30;14.55;;;1.88;;
52978;SDS011;63430;53.186;6.598;2024-03-25T03:04:31;9.68;;;1.75;;
52978;SDS011;63430;53.186;6.598;2024-03-25T03:09:33;11.85;;;2.10;;
52978;SDS011;63430;53.186;6.598;2024-03-25T03:14:37;8.43;;;1.67;;
52978;SDS011;63430;53.186;6.598;2024-03-25T03:19:39;14.73;;;2.50;;
52978;SDS011;63430;53.186;6.598;2024-03-25T03:24:41;9.82;;;2.72;;
52978;SDS011;63430;53.186;6.598;2024-03-25T03:29:45;12.70;;;1.92;;
52978;SDS011;63430;53.186;6.598;2024-03-25T03:34:46;11.23;;;1.80;;
52978;SDS011;63430;53.186;6.598;2024-03-25T03:39:47;10.50;;;1.90;;
52978;SDS011;63430;53.186;6.598;2024-03-25T03:44:51;9.10;;;2.15;;
52978;SDS011;63430;53.186;6.598;2024-03-25T03:49:53;14.52;;;2.40;;
52978;SDS011;63430;53.186;6.598;2024-03-25T03:54:54;13.57;;;2.05;;
52978;SDS011;63430;53.186;6.598;2024-03-25T03:59:58;14.73;;;2.28;;
52978;SDS011;63430;53.186;6.598;2024-03-25T04:04:59;8.48;;;1.90;;
52978;SDS011;63430;53.186;6.598;2024-03-25T04:10:01;14.25;;;2.25;;
52978;SDS011;63430;53.186;6.598;2024-03-25T04:15:07;6.32;;;1.63;;
52978;SDS011;63430;53.186;6.598;2024-03-25T04:20:10;10.30;;;2.15;;
52978;SDS011;63430;53.186;6.598;2024-03-25T04:25:12;12.90;;;2.35;;
52978;SDS011;63430;53.186;6.598;2024-03-25T04:30:22;11.40;;;2.08;;
52978;SDS011;63430;53.186;6.598;2024-03-25T04:35:24;15.43;;;2.40;;
52978;SDS011;63430;53.186;6.598;2024-03-25T04:40:25;13.93;;;2.35;;
52978;SDS011;63430;53.186;6.598;2024-03-25T04:45:29;14.68;;;3.53;;
52978;SDS011;63430;53.186;6.598;2024-03-25T04:50:31;18.73;;;3.08;;
52978;SDS011;63430;53.186;6.598;2024-03-25T04:55:32;10.00;;;2.15;;
52978;SDS011;63430;53.186;6.598;2024-03-25T05:00:37;12.52;;;2.47;;
52978;SDS011;63430;53.186;6.598;2024-03-25T05:05:38;11.55;;;2.28;;
52978;SDS011;63430;53.186;6.598;2024-03-25T05:10:40;14.27;;;2.47;;
52978;SDS011;63430;53.186;6.598;2024-03-25T05:15:44;12.80;;;3.17;;
52978;SDS011;63430;53.186;6.598;2024-03-25T05:20:51;18.20;;;2.05;;
52978;SDS011;63430;53.186;6.598;2024-03-25T05:25:52;10.45;;;2.33;;
52978;SDS011;63430;53.186;6.598;2024-03-25T05:31:04;19.38;;;3.38;;
52978;SDS011;63430;53.186;6.598;2024-03-25T05:36:07;13.07;;;2.55;;
52978;SDS011;63430;53.186;6.598;2024-03-25T05:41:08;13.25;;;2.97;;
52978;SDS011;63430;53.186;6.598;2024-03-25T05:46:13;20.55;;;3.20;;
52978;SDS011;63430;53.186;6.598;2024-03-25T05:51:14;13.27;;;2.30;;
52978;SDS011;63430;53.186;6.598;2024-03-25T05:56:16;14.55;;;2.83;;
52978;SDS011;63430;53.186;6.598;2024-03-25T06:01:20;11.63;;;2.40;;
52978;SDS011;63430;53.186;6.598;2024-03-25T06:06:21;18.23;;;3.10;;
52978;SDS011;63430;53.186;6.598;2024-03-25T06:11:23;14.75;;;2.55;;
52978;SDS011;63430;53.186;6.598;2024-03-25T06:16:27;15.13;;;3.10;;
52978;SDS011;63430;53.186;6.598;2024-03-25T06:21:29;13.73;;;3.20;;
52978;SDS011;63430;53.186;6.598;2024-03-25T06:26:30;12.73;;;2.72;;
52978;SDS011;63430;53.186;6.598;2024-03-25T06:31:34;13.93;;;2.92;;
52978;SDS011;63430;53.186;6.598;2024-03-25T06:36:54;10.70;;;3.42;;
52978;SDS011;63430;53.186;6.598;2024-03-25T06:41:56;12.65;;;2.65;;
52978;SDS011;63430;53.186;6.598;2024-03-25T06:47:00;14.05;;;3.03;;
52978;SDS011;63430;53.186;6.598;2024-03-25T06:52:01;11.27;;;2.95;;
52978;SDS011;63430;53.186;6.598;2024-03-25T06:57:03;15.55;;;3.03;;
52978;SDS011;63430;53.186;6.598;2024-03-25T07:02:09;12.20;;;2.40;;
52978;SDS011;63430;53.186;6.598;2024-03-25T07:07:11;12.50;;;2.40;;
52978;SDS011;63430;53.186;6.598;2024-03-25T07:12:12;8.98;;;2.25;;
52978;SDS011;63430;53.186;6.598;2024-03-25T07:17:17;9.77;;;2.17;;
52978;SDS011;63430;53.186;6.598;2024-03-25T07:22:22;10.70;;;1.80;;
52978;SDS011;63430;53.186;6.598;2024-03-25T07:27:24;10.25;;;2.20;;
52978;SDS011;63430;53.186;6.598;2024-03-25T07:32:28;13.68;;;2.47;;
52978;SDS011;63430;53.186;6.598;2024-03-25T07:37:30;9.32;;;2.10;;
52978;SDS011;63430;53.186;6.598;2024-03-25T07:42:32;13.38;;;2.08;;
52978;SDS011;63430;53.186;6.598;2024-03-25T07:47:37;10.57;;;2.38;;
52978;SDS011;63430;53.186;6.598;2024-03-25T07:52:38;11.18;;;2.05;;
52978;SDS011;63430;53.186;6.598;2024-03-25T07:57:44;11.02;;;2.15;;
52978;SDS011;63430;53.186;6.598;2024-03-25T08:02:49;9.77;;;1.92;;
52978;SDS011;63430;53.186;6.598;2024-03-25T08:07:50;6.50;;;2.00;;
52978;SDS011;63430;53.186;6.598;2024-03-25T08:12:52;6.88;;;1.42;;
52978;SDS011;63430;53.186;6.598;2024-03-25T08:17:56;14.93;;;2.58;;
52978;SDS011;63430;53.186;6.598;2024-03-25T08:23:00;10.80;;;1.77;;
52978;SDS011;63430;53.186;6.598;2024-03-25T08:28:01;8.90;;;1.25;;
52978;SDS011;63430;53.186;6.598;2024-03-25T08:33:06;6.50;;;1.45;;
52978;SDS011;63430;53.186;6.598;2024-03-25T08:38:07;9.27;;;1.42;;
52978;SDS011;63430;53.186;6.598;2024-03-25T08:43:09;4.85;;;1.27;;
52978;SDS011;63430;53.186;6.598;2024-03-25T08:48:13;8.07;;;1.17;;
52978;SDS011;63430;53.186;6.598;2024-03-25T08:53:15;5.45;;;1.20;;
52978;SDS011;63430;53.186;6.598;2024-03-25T08:58:17;5.10;;;1.65;;
52978;SDS011;63430;53.186;6.598;2024-03-25T09:03:21;6.78;;;1.55;;
52978;SDS011;63430;53.186;6.598;2024-03-25T09:08:22;6.85;;;1.58;;
52978;SDS011;63430;53.186;6.598;2024-03-25T09:13:24;7.38;;;1.45;;
52978;SDS011;63430;53.186;6.598;2024-03-25T09:18:28;6.15;;;1.20;;
52978;SDS011;63430;53.186;6.598;2024-03-25T09:23:32;6.68;;;1.60;;
52978;SDS011;63430;53.186;6.598;2024-03-25T09:28:33;8.05;;;1.80;;
52978;SDS011;63430;53.186;6.598;2024-03-25T09:33:38;8.73;;;1.63;;
52978;SDS011;63430;53.186;6.598;2024-03-25T09:38:40;7.18;;;1.23;;
52978;SDS011;63430;53.186;6.598;2024-03-25T09:43:42;18.40;;;2.47;;
52978;SDS011;63430;53.186;6.598;2024-03-25T09:48:49;8.65;;;1.40;;
52978;SDS011;63430;53.186;6.598;2024-03-25T09:53:52;10.00;;;1.50;;
52978;SDS011;63430;53.186;6.598;2024-03-25T09:58:54;6.68;;;0.98;;
52978;SDS011;63430;53.186;6.598;2024-03-25T10:03:58;6.18;;;1.30;;
52978;SDS011;63430;53.186;6.598;2024-03-25T10:09:00;8.73;;;1.67;;
52978;SDS011;63430;53.186;6.598;2024-03-25T10:14:06;9.55;;;1.98;;
52978;SDS011;63430;53.186;6.598;2024-03-25T10:19:12;7.45;;;1.13;;
52978;SDS011;63430;53.186;6.598;2024-03-25T10:24:15;6.88;;;1.50;;
52978;SDS011;63430;53.186;6.598;2024-03-25T10:29:17;8.07;;;1.48;;
52978;SDS011;63430;53.186;6.598;2024-03-25T10:34:22;8.65;;;1.50;;
52978;SDS011;63430;53.186;6.598;2024-03-25T10:39:25;6.88;;;1.30;;
52978;SDS011;63430;53.186;6.598;2024-03-25T10:44:29;7.97;;;1.80;;
52978;SDS011;63430;53.186;6.598;2024-03-25T10:49:37;8.18;;;2.50;;
52978;SDS011;63430;53.186;6.598;2024-03-25T10:54:44;10.75;;;1.83;;
52978;SDS011;63430;53.186;6.598;2024-03-25T10:59:48;6.68;;;1.50;;
52978;SDS011;63430;53.186;6.598;2024-03-25T11:04:53;5.03;;;1.30;;
52978;SDS011;63430;53.186;6.598;2024-03-25T11:10:04;6.72;;;1.50;;
52978;SDS011;63430;53.186;6.598;2024-03-25T11:15:09;5.35;;;1.45;;
52978;SDS011;63430;53.186;6.598;2024-03-25T11:20:15;10.02;;;1.50;;
52978;SDS011;63430;53.186;6.598;2024-03-25T11:25:18;6.38;;;1.98;;
52978;SDS011;63430;53.186;6.598;2024-03-25T11:30:21;10.57;;;1.95;;
52978;SDS011;63430;53.186;6.598;2024-03-25T11:35:29;10.60;;;1.90;;
52978;SDS011;63430;53.186;6.598;2024-03-25T11:40:31;11.00;;;1.67;;
52978;SDS011;63430;53.186;6.598;2024-03-25T11:45:32;6.57;;;1.70;;
52978;SDS011;63430;53.186;6.598;2024-03-25T11:50:37;8.88;;;1.90;;
52978;SDS011;63430;53.186;6.598;2024-03-25T11:55:39;9.25;;;1.80;;
52978;SDS011;63430;53.186;6.598;2024-03-25T12:00:43;10.23;;;1.45;;
52978;SDS011;63430;53.186;6.598;2024-03-25T12:05:48;10.63;;;1.85;;
52978;SDS011;63430;53.186;6.598;2024-03-25T12:10:50;7.63;;;1.83;;
52978;SDS011;63430;53.186;6.598;2024-03-25T12:16:10;10.57;;;2.47;;
52978;SDS011;63430;53.186;6.598;2024-03-25T12:21:17;22.67;;;3.10;;
52978;SDS011;63430;53.186;6.598;2024-03-25T12:26:20;6.63;;;1.23;;
52978;SDS011;63430;53.186;6.598;2024-03-25T12:31:23;9.93;;;1.77;;
52978;SDS011;63430;53.186;6.598;2024-03-25T12:36:28;10.48;;;1.52;;
52978;SDS011;63430;53.186;6.598;2024-03-25T12:41:35;8.40;;;1.83;;
52978;SDS011;63430;53.186;6.598;2024-03-25T12:46:37;10.10;;;2.33;;
52978;SDS011;63430;53.186;6.598;2024-03-25T12:51:42;7.82;;;1.70;;
52978;SDS011;63430;53.186;6.598;2024-03-25T12:56:43;10.23;;;1.70;;
52978;SDS011;63430;53.186;6.598;2024-03-25T13:01:45;8.35;;;1.58;;
52978;SDS011;63430;53.186;6.598;2024-03-25T13:06:49;11.57;;;2.00;;
52978;SDS011;63430;53.186;6.598;2024-03-25T13:11:50;10.43;;;1.75;;
52978;SDS011;63430;53.186;6.598;2024-03-25T13:16:52;7.75;;;2.00;;
52978;SDS011;63430;53.186;6.598;2024-03-25T13:21:57;7.15;;;1.90;;
52978;SDS011;63430;53.186;6.598;2024-03-25T13:27:01;8.10;;;1.60;;
52978;SDS011;63430;53.186;6.598;2024-03-25T13:32:02;8.32;;;2.33;;
52978;SDS011;63430;53.186;6.598;2024-03-25T13:37:07;8.10;;;1.95;;
52978;SDS011;63430;53.186;6.598;2024-03-25T13:42:08;11.35;;;2.50;;
52978;SDS011;63430;53.186;6.598;2024-03-25T13:47:10;8.57;;;2.00;;
52978;SDS011;63430;53.186;6.598;2024-03-25T13:52:14;11.48;;;2.35;;
52978;SDS011;63430;53.186;6.598;2024-03-25T13:57:16;8.95;;;1.80;;
52978;SDS011;63430;53.186;6.598;2024-03-25T14:02:17;10.15;;;2.40;;
52978;SDS011;63430;53.186;6.598;2024-03-25T14:07:21;9.18;;;2.08;;
52978;SDS011;63430;53.186;6.598;2024-03-25T14:12:22;7.40;;;2.20;;
52978;SDS011;63430;53.186;6.598;2024-03-25T14:17:24;7.60;;;1.83;;
52978;SDS011;63430;53.186;6.598;2024-03-25T14:22:28;7.80;;;1.90;;
52978;SDS011;63430;53.186;6.598;2024-03-25T14:32:35;6.55;;;1.55;;
52978;SDS011;63430;53.186;6.598;2024-03-25T14:37:41;9.90;;;2.30;;
52978;SDS011;63430;53.186;6.598;2024-03-25T14:42:43;6.30;;;1.50;;
52978;SDS011;63430;53.186;6.598;2024-03-25T14:47:44;6.85;;;1.73;;
52978;SDS011;63430;53.186;6.598;2024-03-25T14:52:48;5.47;;;1.42;;
52978;SDS011;63430;53.186;6.598;2024-03-25T14:57:51;7.97;;;1.90;;
52978;SDS011;63430;53.186;6.598;2024-03-25T15:02:53;11.50;;;2.53;;
52978;SDS011;63430;53.186;6.598;2024-03-25T15:07:57;5.68;;;1.48;;
52978;SDS011;63430;53.186;6.598;2024-03-25T15:12:58;7.72;;;1.60;;
52978;SDS011;63430;53.186;6.598;2024-03-25T15:18:02;9.38;;;2.13;;
52978;SDS011;63430;53.186;6.598;2024-03-25T15:23:06;7.72;;;2.00;;
52978;SDS011;63430;53.186;6.598;2024-03-25T15:28:08;9.02;;;2.15;;
52978;SDS011;63430;53.186;6.598;2024-03-25T15:33:10;8.75;;;1.92;;
52978;SDS011;63430;53.186;6.598;2024-03-25T15:38:14;6.88;;;1.85;;
52978;SDS011;63430;53.186;6.598;2024-03-25T15:43:15;9.10;;;1.90;;
52978;SDS011;63430;53.186;6.598;2024-03-25T15:48:17;11.95;;;2.05;;
52978;SDS011;63430;53.186;6.598;2024-03-25T15:53:21;12.73;;;2.08;;
52978;SDS011;63430;53.186;6.598;2024-03-25T15:58:22;6.63;;;1.63;;
52978;SDS011;63430;53.186;6.598;2024-03-25T16:03:24;8.70;;;1.80;;
52978;SDS011;63430;53.186;6.598;2024-03-25T16:08:28;9.65;;;1.95;;
52978;SDS011;63430;53.186;6.598;2024-03-25T16:13:30;13.90;;;2.50;;
52978;SDS011;63430;53.186;6.598;2024-03-25T16:18:32;6.97;;;1.75;;
52978;SDS011;63430;53.186;6.598;2024-03-25T16:23:36;14.07;;;1.60;;
52978;SDS011;63430;53.186;6.598;2024-03-25T16:28:39;7.70;;;2.10;;
52978;SDS011;63430;53.186;6.598;2024-03-25T16:33:40;9.85;;;2.03;;
52978;SDS011;63430;53.186;6.598;2024-03-25T16:38:44;7.03;;;1.75;;
52978;SDS011;63430;53.186;6.598;2024-03-25T16:43:45;9.85;;;1.90;;
52978;SDS011;63430;53.186;6.598;2024-03-25T16:48:47;6.43;;;2.20;;
52978;SDS011;63430;53.186;6.598;2024-03-25T16:53:50;9.32;;;2.65;;
52978;SDS011;63430;53.186;6.598;2024-03-25T16:58:52;7.10;;;2.00;;
52978;SDS011;63430;53.186;6.598;2024-03-25T17:03:54;6.93;;;1.90;;
52978;SDS011;63430;53.186;6.598;2024-03-25T17:08:57;10.65;;;2.05;;
52978;SDS011;63430;53.186;6.598;2024-03-25T17:13:59;8.82;;;2.15;;
52978;SDS011;63430;53.186;6.598;2024-03-25T17:19:00;11.20;;;2.20;;
52978;SDS011;63430;53.186;6.598;2024-03-25T17:24:05;11.23;;;2.60;;
52978;SDS011;63430;53.186;6.598;2024-03-25T17:29:07;7.45;;;2.40;;
52978;SDS011;63430;53.186;6.598;2024-03-25T17:34:09;8.20;;;2.40;;
52978;SDS011;63430;53.186;6.598;2024-03-25T17:39:13;7.03;;;2.28;;
52978;SDS011;63430;53.186;6.598;2024-03-25T17:44:15;13.10;;;3.00;;
52978;SDS011;63430;53.186;6.598;2024-03-25T17:49:17;12.13;;;2.78;;
52978;SDS011;63430;53.186;6.598;2024-03-25T17:54:21;7.93;;;2.50;;
52978;SDS011;63430;53.186;6.598;2024-03-25T17:59:22;8.60;;;2.30;;
52978;SDS011;63430;53.186;6.598;2024-03-25T18:04:24;9.35;;;2.13;;
52978;SDS011;63430;53.186;6.598;2024-03-25T18:09:28;8.52;;;2.40;;
52978;SDS011;63430;53.186;6.598;2024-03-25T18:14:29;5.28;;;1.85;;
52978;SDS011;63430;53.186;6.598;2024-03-25T18:19:33;11.40;;;2.00;;
52978;SDS011;63430;53.186;6.598;2024-03-25T18:24:37;7.28;;;2.38;;
52978;SDS011;63430;53.186;6.598;2024-03-25T18:29:39;7.63;;;2.30;;
52978;SDS011;63430;53.186;6.598;2024-03-25T18:34:41;6.63;;;2.20;;
52978;SDS011;63430;53.186;6.598;2024-03-25T18:39:45;14.65;;;2.75;;
52978;SDS011;63430;53.186;6.598;2024-03-25T18:44:47;7.28;;;1.73;;
52978;SDS011;63430;53.186;6.598;2024-03-25T18:49:48;8.23;;;2.25;;
52978;SDS011;63430;53.186;6.598;2024-03-25T18:54:52;12.18;;;2.90;;
52978;SDS011;63430;53.186;6.598;2024-03-25T18:59:54;7.72;;;2.50;;
52978;SDS011;63430;53.186;6.598;2024-03-25T19:04:55;8.38;;;2.50;;
52978;SDS011;63430;53.186;6.598;2024-03-25T19:09:59;10.90;;;2.65;;
52978;SDS011;63430;53.186;6.598;2024-03-25T19:15:01;9.95;;;2.90;;
52978;SDS011;63430;53.186;6.598;2024-03-25T19:20:04;10.18;;;2.72;;
52978;SDS011;63430;53.186;6.598;2024-03-25T19:25:11;13.55;;;3.45;;
52978;SDS011;63430;53.186;6.598;2024-03-25T19:30:16;9.85;;;3.10;;
52978;SDS011;63430;53.186;6.598;2024-03-25T19:35:18;9.70;;;3.38;;
52978;SDS011;63430;53.186;6.598;2024-03-25T19:40:22;11.27;;;2.95;;
52978;SDS011;63430;53.186;6.598;2024-03-25T19:45:23;10.07;;;3.38;;
52978;SDS011;63430;53.186;6.598;2024-03-25T19:50:24;6.80;;;3.00;;
52978;SDS011;63430;53.186;6.598;2024-03-25T19:55:28;10.13;;;3.35;;
52978;SDS011;63430;53.186;6.598;2024-03-25T20:00:30;7.63;;;2.78;;
52978;SDS011;63430;53.186;6.598;2024-03-25T20:05:31;8.73;;;3.25;;
52978;SDS011;63430;53.186;6.598;2024-03-25T20:10:35;10.43;;;3.38;;
52978;SDS011;63430;53.186;6.598;2024-03-25T20:15:37;8.63;;;3.05;;
52978;SDS011;63430;53.186;6.598;2024-03-25T20:20:39;10.85;;;2.85;;
52978;SDS011;63430;53.186;6.598;2024-03-25T20:25:43;8.57;;;2.90;;
52978;SDS011;63430;53.186;6.598;2024-03-25T20:30:46;10.38;;;3.28;;
52978;SDS011;63430;53.186;6.598;2024-03-25T20:35:47;7.35;;;2.92;;
52978;SDS011;63430;53.186;6.598;2024-03-25T20:40:51;7.32;;;2.97;;
52978;SDS011;63430;53.186;6.598;2024-03-25T20:45:52;10.77;;;3.38;;
52978;SDS011;63430;53.186;6.598;2024-03-25T20:50:54;8.63;;;3.17;;
52978;SDS011;63430;53.186;6.598;2024-03-25T20:55:58;11.25;;;3.80;;
52978;SDS011;63430;53.186;6.598;2024-03-25T21:01:00;11.20;;;3.83;;
52978;SDS011;63430;53.186;6.598;2024-03-25T21:06:01;12.50;;;3.88;;
52978;SDS011;63430;53.186;6.598;2024-03-25T21:11:08;7.75;;;3.83;;
52978;SDS011;63430;53.186;6.598;2024-03-25T21:16:10;12.93;;;3.88;;
52978;SDS011;63430;53.186;6.598;2024-03-25T21:21:12;8.95;;;3.15;;
52978;SDS011;63430;53.186;6.598;2024-03-25T21:26:16;10.50;;;3.50;;
52978;SDS011;63430;53.186;6.598;2024-03-25T21:31:17;7.95;;;3.70;;
52978;SDS011;63430;53.186;6.598;2024-03-25T21:36:18;7.95;;;3.30;;
52978;SDS011;63430;53.186;6.598;2024-03-25T21:41:22;7.40;;;3.75;;
52978;SDS011;63430;53.186;6.598;2024-03-25T21:46:24;7.65;;;3.33;;
52978;SDS011;63430;53.186;6.598;2024-03-25T21:51:25;12.18;;;3.92;;
52978;SDS011;63430;53.186;6.598;2024-03-25T21:56:29;9.23;;;3.78;;
52978;SDS011;63430;53.186;6.598;2024-03-25T22:01:31;9.77;;;3.67;;
52978;SDS011;63430;53.186;6.598;2024-03-25T22:06:33;9.95;;;4.25;;
52978;SDS011;63430;53.186;6.598;2024-03-25T22:11:37;8.80;;;3.97;;
52978;SDS011;63430;53.186;6.598;2024-03-25T22:16:40;8.75;;;4.40;;
52978;SDS011;63430;53.186;6.598;2024-03-25T22:21:41;8.43;;;4.47;;
52978;SDS011;63430;53.186;6.598;2024-03-25T22:26:45;9.23;;;4.32;;
52978;SDS011;63430;53.186;6.598;2024-03-25T22:31:47;13.73;;;4.28;;
52978;SDS011;63430;53.186;6.598;2024-03-25T22:36:48;8.40;;;4.03;;
52978;SDS011;63430;53.186;6.598;2024-03-25T22:41:52;7.18;;;3.78;;
52978;SDS011;63430;53.186;6.598;2024-03-25T22:46:53;10.75;;;3.90;;
52978;SDS011;63430;53.186;6.598;2024-03-25T22:51:55;11.23;;;4.65;;
52978;SDS011;63430;53.186;6.598;2024-03-25T22:56:59;8.52;;;4.53;;
52978;SDS011;63430;53.186;6.598;2024-03-25T23:02:01;10.98;;;5.60;;
52978;SDS011;63430;53.186;6.598;2024-03-25T23:07:02;11.15;;;4.78;;
52978;SDS011;63430;53.186;6.598;2024-03-25T23:12:06;11.18;;;5.22;;
52978;SDS011;63430;53.186;6.598;2024-03-25T23:17:08;14.15;;;5.15;;
52978;SDS011;63430;53.186;6.598;2024-03-25T23:22:10;10.68;;;5.00;;
52978;SDS011;63430;53.186;6.598;2024-03-25T23:27:14;10.13;;;5.43;;
52978;SDS011;63430;53.186;6.598;2024-03-25T23:32:18;9.18;;;4.80;;
52978;SDS011;63430;53.186;6.598;2024-03-25T23:37:19;11.23;;;5.18;;
52978;SDS011;63430;53.186;6.598;2024-03-25T23:42:23;11.75;;;5.95;;
52978;SDS011;63430;53.186;6.598;2024-03-25T23:47:25;12.45;;;5.70;;
52978;SDS011;63430;53.186;6.598;2024-03-25T23:52:26;11.35;;;5.68;;
52978;SDS011;63430;53.186;6.598;2024-03-25T23:57:30;13.90;;;5.85;;
